sensor_id;sensor_type;location;lat;lon;timestamp;P1;durP1;ratioP1;P2;durP2;ratioP2
23988;SDS011;12202;52.136;5.592;2023-03-01T00:02:01;42.70;;;19.38;;
23988;SDS011;12202;52.136;5.592;2023-03-01T00:04:27;37.80;;;19.52;;
23988;SDS011;12202;52.136;5.592;2023-03-01T00:06:53;41.35;;;19.98;;
23988;SDS011;12202;52.136;5.592;2023-03-01T00:09:19;38.05;;;17.38;;
23988;SDS011;12202;52.136;5.592;2023-03-01T00:11:45;36.45;;;17.33;;
23988;SDS011;12202;52.136;5.592;2023-03-01T00:14:11;35.75;;;17.92;;
23988;SDS011;12202;52.136;5.592;2023-03-01T00:16:39;37.83;;;17.77;;
23988;SDS011;12202;52.136;5.592;2023-03-01T00:19:05;38.42;;;18.65;;
23988;SDS011;12202;52.136;5.592;2023-03-01T00:21:31;39.88;;;18.92;;
23988;SDS011;12202;52.136;5.592;2023-03-01T00:24:00;33.85;;;18.35;;
23988;SDS011;12202;52.136;5.592;2023-03-01T00:26:26;45.55;;;18.85;;
23988;SDS011;12202;52.136;5.592;2023-03-01T00:28:53;39.83;;;20.15;;
23988;SDS011;12202;52.136;5.592;2023-03-01T00:31:23;44.75;;;21.08;;
23988;SDS011;12202;52.136;5.592;2023-03-01T00:33:54;40.47;;;20.27;;
23988;SDS011;12202;52.136;5.592;2023-03-01T00:36:24;43.38;;;20.00;;
23988;SDS011;12202;52.136;5.592;2023-03-01T00:38:50;43.42;;;18.67;;
23988;SDS011;12202;52.136;5.592;2023-03-01T00:41:17;39.97;;;19.20;;
23988;SDS011;12202;52.136;5.592;2023-03-01T00:43:43;40.53;;;18.25;;
23988;SDS011;12202;52.136;5.592;2023-03-01T00:46:10;33.90;;;17.98;;
23988;SDS011;12202;52.136;5.592;2023-03-01T00:48:36;35.63;;;16.30;;
23988;SDS011;12202;52.136;5.592;2023-03-01T00:53:31;39.00;;;18.23;;
23988;SDS011;12202;52.136;5.592;2023-03-01T00:55:57;36.55;;;18.15;;
23988;SDS011;12202;52.136;5.592;2023-03-01T00:58:23;33.92;;;18.23;;
23988;SDS011;12202;52.136;5.592;2023-03-01T01:00:49;35.42;;;17.23;;
23988;SDS011;12202;52.136;5.592;2023-03-01T01:03:17;42.70;;;18.80;;
23988;SDS011;12202;52.136;5.592;2023-03-01T01:05:43;33.50;;;17.85;;
23988;SDS011;12202;52.136;5.592;2023-03-01T01:08:09;31.63;;;17.52;;
23988;SDS011;12202;52.136;5.592;2023-03-01T01:10:35;28.42;;;16.23;;
23988;SDS011;12202;52.136;5.592;2023-03-01T01:13:01;38.30;;;17.50;;
23988;SDS011;12202;52.136;5.592;2023-03-01T01:15:27;37.33;;;17.73;;
23988;SDS011;12202;52.136;5.592;2023-03-01T01:17:53;33.83;;;15.93;;
23988;SDS011;12202;52.136;5.592;2023-03-01T01:20:19;34.60;;;16.10;;
23988;SDS011;12202;52.136;5.592;2023-03-01T01:22:45;35.38;;;17.27;;
23988;SDS011;12202;52.136;5.592;2023-03-01T01:25:11;34.80;;;16.83;;
23988;SDS011;12202;52.136;5.592;2023-03-01T01:27:37;35.20;;;17.45;;
23988;SDS011;12202;52.136;5.592;2023-03-01T01:30:03;33.60;;;17.27;;
23988;SDS011;12202;52.136;5.592;2023-03-01T01:32:30;37.78;;;17.00;;
23988;SDS011;12202;52.136;5.592;2023-03-01T01:34:56;32.25;;;17.20;;
23988;SDS011;12202;52.136;5.592;2023-03-01T01:37:22;32.90;;;16.45;;
23988;SDS011;12202;52.136;5.592;2023-03-01T01:39:48;32.58;;;17.08;;
23988;SDS011;12202;52.136;5.592;2023-03-01T01:42:17;32.20;;;16.27;;
23988;SDS011;12202;52.136;5.592;2023-03-01T01:44:47;36.05;;;18.02;;
23988;SDS011;12202;52.136;5.592;2023-03-01T01:47:14;38.33;;;17.65;;
23988;SDS011;12202;52.136;5.592;2023-03-01T01:52:09;34.83;;;16.70;;
23988;SDS011;12202;52.136;5.592;2023-03-01T01:57:16;33.40;;;18.08;;
23988;SDS011;12202;52.136;5.592;2023-03-01T01:59:44;36.58;;;17.80;;
23988;SDS011;12202;52.136;5.592;2023-03-01T02:02:11;44.85;;;17.17;;
23988;SDS011;12202;52.136;5.592;2023-03-01T02:04:37;35.95;;;17.52;;
23988;SDS011;12202;52.136;5.592;2023-03-01T02:07:06;39.25;;;18.10;;
23988;SDS011;12202;52.136;5.592;2023-03-01T02:09:33;37.47;;;18.00;;
23988;SDS011;12202;52.136;5.592;2023-03-01T02:11:59;36.92;;;17.52;;
23988;SDS011;12202;52.136;5.592;2023-03-01T02:14:25;38.78;;;19.00;;
23988;SDS011;12202;52.136;5.592;2023-03-01T02:16:51;50.55;;;20.33;;
23988;SDS011;12202;52.136;5.592;2023-03-01T02:22:17;42.15;;;18.85;;
23988;SDS011;12202;52.136;5.592;2023-03-01T02:27:21;30.13;;;17.45;;
23988;SDS011;12202;52.136;5.592;2023-03-01T02:29:49;36.88;;;18.25;;
23988;SDS011;12202;52.136;5.592;2023-03-01T02:32:15;39.92;;;18.33;;
23988;SDS011;12202;52.136;5.592;2023-03-01T02:34:49;35.83;;;18.58;;
23988;SDS011;12202;52.136;5.592;2023-03-01T02:37:15;32.22;;;17.90;;
23988;SDS011;12202;52.136;5.592;2023-03-01T02:39:49;38.17;;;18.52;;
23988;SDS011;12202;52.136;5.592;2023-03-01T02:42:19;38.47;;;18.77;;
23988;SDS011;12202;52.136;5.592;2023-03-01T02:44:48;38.25;;;19.92;;
23988;SDS011;12202;52.136;5.592;2023-03-01T02:47:14;40.90;;;19.63;;
23988;SDS011;12202;52.136;5.592;2023-03-01T02:49:40;38.00;;;19.10;;
23988;SDS011;12202;52.136;5.592;2023-03-01T02:52:22;36.45;;;18.77;;
23988;SDS011;12202;52.136;5.592;2023-03-01T02:57:14;38.67;;;19.52;;
23988;SDS011;12202;52.136;5.592;2023-03-01T02:59:41;36.40;;;18.85;;
23988;SDS011;12202;52.136;5.592;2023-03-01T03:02:08;39.45;;;20.17;;
23988;SDS011;12202;52.136;5.592;2023-03-01T03:04:45;38.75;;;19.60;;
23988;SDS011;12202;52.136;5.592;2023-03-01T03:07:11;43.78;;;20.17;;
23988;SDS011;12202;52.136;5.592;2023-03-01T03:09:37;37.25;;;19.20;;
23988;SDS011;12202;52.136;5.592;2023-03-01T03:12:03;37.08;;;19.95;;
23988;SDS011;12202;52.136;5.592;2023-03-01T03:14:29;44.17;;;21.38;;
23988;SDS011;12202;52.136;5.592;2023-03-01T03:16:55;38.72;;;19.23;;
23988;SDS011;12202;52.136;5.592;2023-03-01T03:19:21;40.65;;;20.02;;
23988;SDS011;12202;52.136;5.592;2023-03-01T03:21:47;43.92;;;22.48;;
23988;SDS011;12202;52.136;5.592;2023-03-01T03:24:14;42.70;;;21.70;;
23988;SDS011;12202;52.136;5.592;2023-03-01T03:26:40;42.13;;;21.88;;
23988;SDS011;12202;52.136;5.592;2023-03-01T03:29:06;43.63;;;21.90;;
23988;SDS011;12202;52.136;5.592;2023-03-01T03:31:32;45.63;;;22.70;;
23988;SDS011;12202;52.136;5.592;2023-03-01T03:33:59;47.92;;;23.10;;
23988;SDS011;12202;52.136;5.592;2023-03-01T03:36:25;50.70;;;23.98;;
23988;SDS011;12202;52.136;5.592;2023-03-01T03:38:51;40.58;;;22.20;;
23988;SDS011;12202;52.136;5.592;2023-03-01T03:41:17;42.92;;;24.33;;
23988;SDS011;12202;52.136;5.592;2023-03-01T03:43:43;39.65;;;21.77;;
23988;SDS011;12202;52.136;5.592;2023-03-01T03:46:10;44.78;;;21.90;;
23988;SDS011;12202;52.136;5.592;2023-03-01T03:48:40;46.20;;;21.30;;
23988;SDS011;12202;52.136;5.592;2023-03-01T03:51:09;41.53;;;21.35;;
23988;SDS011;12202;52.136;5.592;2023-03-01T03:53:35;48.33;;;23.35;;
23988;SDS011;12202;52.136;5.592;2023-03-01T03:56:01;41.42;;;20.80;;
23988;SDS011;12202;52.136;5.592;2023-03-01T03:58:27;49.97;;;22.70;;
23988;SDS011;12202;52.136;5.592;2023-03-01T04:00:56;43.55;;;21.80;;
23988;SDS011;12202;52.136;5.592;2023-03-01T04:03:23;42.42;;;22.95;;
23988;SDS011;12202;52.136;5.592;2023-03-01T04:05:49;43.40;;;23.70;;
23988;SDS011;12202;52.136;5.592;2023-03-01T04:08:16;44.45;;;21.70;;
23988;SDS011;12202;52.136;5.592;2023-03-01T04:10:45;42.55;;;22.00;;
23988;SDS011;12202;52.136;5.592;2023-03-01T04:13:13;47.05;;;21.40;;
23988;SDS011;12202;52.136;5.592;2023-03-01T04:15:39;41.65;;;21.75;;
23988;SDS011;12202;52.136;5.592;2023-03-01T04:18:05;41.22;;;20.98;;
23988;SDS011;12202;52.136;5.592;2023-03-01T04:20:33;39.47;;;20.00;;
23988;SDS011;12202;52.136;5.592;2023-03-01T04:23:03;45.97;;;19.90;;
23988;SDS011;12202;52.136;5.592;2023-03-01T04:25:39;42.72;;;21.33;;
23988;SDS011;12202;52.136;5.592;2023-03-01T04:28:05;41.45;;;20.25;;
23988;SDS011;12202;52.136;5.592;2023-03-01T04:30:31;37.97;;;20.48;;
23988;SDS011;12202;52.136;5.592;2023-03-01T04:33:01;41.38;;;20.90;;
23988;SDS011;12202;52.136;5.592;2023-03-01T04:35:27;40.45;;;20.77;;
23988;SDS011;12202;52.136;5.592;2023-03-01T04:37:53;48.65;;;22.05;;
23988;SDS011;12202;52.136;5.592;2023-03-01T04:40:20;47.65;;;23.77;;
23988;SDS011;12202;52.136;5.592;2023-03-01T04:42:46;49.33;;;25.42;;
23988;SDS011;12202;52.136;5.592;2023-03-01T04:45:12;41.65;;;24.88;;
23988;SDS011;12202;52.136;5.592;2023-03-01T04:47:39;53.70;;;28.75;;
23988;SDS011;12202;52.136;5.592;2023-03-01T04:50:08;52.33;;;29.10;;
23988;SDS011;12202;52.136;5.592;2023-03-01T04:52:57;52.45;;;26.70;;
23988;SDS011;12202;52.136;5.592;2023-03-01T04:58:55;43.28;;;24.23;;
23988;SDS011;12202;52.136;5.592;2023-03-01T05:01:21;48.90;;;22.70;;
23988;SDS011;12202;52.136;5.592;2023-03-01T05:03:48;56.38;;;22.60;;
23988;SDS011;12202;52.136;5.592;2023-03-01T05:06:15;56.28;;;22.05;;
23988;SDS011;12202;52.136;5.592;2023-03-01T05:08:42;47.55;;;22.85;;
23988;SDS011;12202;52.136;5.592;2023-03-01T05:11:08;47.13;;;20.42;;
23988;SDS011;12202;52.136;5.592;2023-03-01T05:13:35;40.42;;;19.63;;
23988;SDS011;12202;52.136;5.592;2023-03-01T05:16:02;47.80;;;20.90;;
23988;SDS011;12202;52.136;5.592;2023-03-01T05:18:29;43.20;;;19.73;;
23988;SDS011;12202;52.136;5.592;2023-03-01T05:21:01;51.88;;;23.30;;
23988;SDS011;12202;52.136;5.592;2023-03-01T05:23:28;39.45;;;20.85;;
23988;SDS011;12202;52.136;5.592;2023-03-01T05:25:57;45.25;;;20.63;;
23988;SDS011;12202;52.136;5.592;2023-03-01T05:28:23;40.97;;;20.88;;
23988;SDS011;12202;52.136;5.592;2023-03-01T05:30:49;38.03;;;18.90;;
23988;SDS011;12202;52.136;5.592;2023-03-01T05:33:16;39.15;;;20.60;;
23988;SDS011;12202;52.136;5.592;2023-03-01T05:35:43;44.60;;;19.83;;
23988;SDS011;12202;52.136;5.592;2023-03-01T05:38:10;39.15;;;20.58;;
23988;SDS011;12202;52.136;5.592;2023-03-01T05:40:38;42.05;;;18.77;;
23988;SDS011;12202;52.136;5.592;2023-03-01T05:43:04;36.70;;;19.23;;
23988;SDS011;12202;52.136;5.592;2023-03-01T05:45:30;42.58;;;19.95;;
23988;SDS011;12202;52.136;5.592;2023-03-01T05:47:57;43.53;;;19.73;;
23988;SDS011;12202;52.136;5.592;2023-03-01T05:50:27;49.03;;;22.48;;
23988;SDS011;12202;52.136;5.592;2023-03-01T05:52:58;53.83;;;26.30;;
23988;SDS011;12202;52.136;5.592;2023-03-01T05:55:24;61.83;;;32.00;;
23988;SDS011;12202;52.136;5.592;2023-03-01T05:57:50;59.85;;;28.58;;
23988;SDS011;12202;52.136;5.592;2023-03-01T06:00:17;61.80;;;26.00;;
23988;SDS011;12202;52.136;5.592;2023-03-01T06:02:43;51.75;;;24.90;;
23988;SDS011;12202;52.136;5.592;2023-03-01T06:05:10;56.00;;;22.67;;
23988;SDS011;12202;52.136;5.592;2023-03-01T06:07:36;56.22;;;23.60;;
23988;SDS011;12202;52.136;5.592;2023-03-01T06:10:03;53.92;;;25.17;;
23988;SDS011;12202;52.136;5.592;2023-03-01T06:12:30;74.60;;;23.63;;
23988;SDS011;12202;52.136;5.592;2023-03-01T06:14:56;50.10;;;21.20;;
23988;SDS011;12202;52.136;5.592;2023-03-01T06:17:22;53.63;;;23.38;;
23988;SDS011;12202;52.136;5.592;2023-03-01T06:19:48;54.00;;;24.05;;
23988;SDS011;12202;52.136;5.592;2023-03-01T06:22:14;63.05;;;25.65;;
23988;SDS011;12202;52.136;5.592;2023-03-01T06:24:40;52.15;;;25.27;;
23988;SDS011;12202;52.136;5.592;2023-03-01T06:27:06;59.38;;;26.10;;
23988;SDS011;12202;52.136;5.592;2023-03-01T06:29:33;56.45;;;26.40;;
23988;SDS011;12202;52.136;5.592;2023-03-01T06:31:59;61.38;;;26.35;;
23988;SDS011;12202;52.136;5.592;2023-03-01T06:34:25;59.65;;;27.58;;
23988;SDS011;12202;52.136;5.592;2023-03-01T06:36:51;63.05;;;27.70;;
23988;SDS011;12202;52.136;5.592;2023-03-01T06:39:17;64.95;;;28.08;;
23988;SDS011;12202;52.136;5.592;2023-03-01T06:41:43;62.25;;;28.30;;
23988;SDS011;12202;52.136;5.592;2023-03-01T06:44:09;88.18;;;34.30;;
23988;SDS011;12202;52.136;5.592;2023-03-01T06:46:35;88.78;;;35.95;;
23988;SDS011;12202;52.136;5.592;2023-03-01T06:49:01;80.07;;;35.22;;
23988;SDS011;12202;52.136;5.592;2023-03-01T06:51:32;72.80;;;30.90;;
23988;SDS011;12202;52.136;5.592;2023-03-01T06:53:58;67.95;;;31.15;;
23988;SDS011;12202;52.136;5.592;2023-03-01T06:56:24;72.72;;;31.33;;
23988;SDS011;12202;52.136;5.592;2023-03-01T06:58:50;69.78;;;30.17;;
23988;SDS011;12202;52.136;5.592;2023-03-01T07:01:16;58.83;;;28.23;;
23988;SDS011;12202;52.136;5.592;2023-03-01T07:03:42;57.03;;;25.48;;
23988;SDS011;12202;52.136;5.592;2023-03-01T07:06:09;71.75;;;28.15;;
23988;SDS011;12202;52.136;5.592;2023-03-01T07:08:35;70.25;;;28.70;;
23988;SDS011;12202;52.136;5.592;2023-03-01T07:11:01;61.50;;;27.60;;
23988;SDS011;12202;52.136;5.592;2023-03-01T07:13:28;66.03;;;28.27;;
23988;SDS011;12202;52.136;5.592;2023-03-01T07:15:54;59.65;;;27.95;;
23988;SDS011;12202;52.136;5.592;2023-03-01T07:18:20;62.55;;;26.98;;
23988;SDS011;12202;52.136;5.592;2023-03-01T07:20:46;65.63;;;28.88;;
23988;SDS011;12202;52.136;5.592;2023-03-01T07:23:12;63.90;;;29.10;;
23988;SDS011;12202;52.136;5.592;2023-03-01T07:25:38;66.72;;;28.50;;
23988;SDS011;12202;52.136;5.592;2023-03-01T07:28:04;62.50;;;26.77;;
23988;SDS011;12202;52.136;5.592;2023-03-01T07:30:30;67.63;;;27.63;;
23988;SDS011;12202;52.136;5.592;2023-03-01T07:32:57;54.42;;;24.70;;
23988;SDS011;12202;52.136;5.592;2023-03-01T07:35:23;60.75;;;27.13;;
23988;SDS011;12202;52.136;5.592;2023-03-01T07:37:50;58.45;;;26.98;;
23988;SDS011;12202;52.136;5.592;2023-03-01T07:40:16;60.22;;;27.35;;
23988;SDS011;12202;52.136;5.592;2023-03-01T07:42:42;58.90;;;27.83;;
23988;SDS011;12202;52.136;5.592;2023-03-01T07:45:08;62.20;;;27.30;;
23988;SDS011;12202;52.136;5.592;2023-03-01T07:47:35;98.28;;;27.40;;
23988;SDS011;12202;52.136;5.592;2023-03-01T07:50:01;57.08;;;25.60;;
23988;SDS011;12202;52.136;5.592;2023-03-01T07:52:27;59.58;;;26.02;;
23988;SDS011;12202;52.136;5.592;2023-03-01T07:54:53;56.95;;;25.38;;
23988;SDS011;12202;52.136;5.592;2023-03-01T07:57:19;53.53;;;24.25;;
23988;SDS011;12202;52.136;5.592;2023-03-01T07:59:45;50.28;;;24.30;;
23988;SDS011;12202;52.136;5.592;2023-03-01T08:02:11;52.20;;;24.42;;
23988;SDS011;12202;52.136;5.592;2023-03-01T08:04:37;50.50;;;23.50;;
23988;SDS011;12202;52.136;5.592;2023-03-01T08:07:04;51.75;;;24.85;;
23988;SDS011;12202;52.136;5.592;2023-03-01T08:09:30;51.42;;;24.00;;
23988;SDS011;12202;52.136;5.592;2023-03-01T08:11:57;52.75;;;24.35;;
23988;SDS011;12202;52.136;5.592;2023-03-01T08:14:26;54.13;;;24.50;;
23988;SDS011;12202;52.136;5.592;2023-03-01T08:16:52;58.03;;;24.67;;
23988;SDS011;12202;52.136;5.592;2023-03-01T08:19:19;56.30;;;24.80;;
23988;SDS011;12202;52.136;5.592;2023-03-01T08:21:45;56.63;;;25.83;;
23988;SDS011;12202;52.136;5.592;2023-03-01T08:24:11;59.03;;;27.42;;
23988;SDS011;12202;52.136;5.592;2023-03-01T08:26:37;58.78;;;24.33;;
23988;SDS011;12202;52.136;5.592;2023-03-01T08:29:03;53.65;;;24.45;;
23988;SDS011;12202;52.136;5.592;2023-03-01T08:31:31;94.03;;;30.10;;
23988;SDS011;12202;52.136;5.592;2023-03-01T08:33:59;50.33;;;24.85;;
23988;SDS011;12202;52.136;5.592;2023-03-01T08:36:29;59.42;;;29.27;;
23988;SDS011;12202;52.136;5.592;2023-03-01T08:38:55;46.47;;;22.85;;
23988;SDS011;12202;52.136;5.592;2023-03-01T08:41:22;45.67;;;20.77;;
23988;SDS011;12202;52.136;5.592;2023-03-01T08:43:48;42.13;;;19.92;;
23988;SDS011;12202;52.136;5.592;2023-03-01T08:46:14;40.55;;;21.38;;
23988;SDS011;12202;52.136;5.592;2023-03-01T08:48:40;46.08;;;20.65;;
23988;SDS011;12202;52.136;5.592;2023-03-01T08:51:14;38.72;;;17.58;;
23988;SDS011;12202;52.136;5.592;2023-03-01T08:53:40;31.65;;;16.83;;
23988;SDS011;12202;52.136;5.592;2023-03-01T08:56:06;32.80;;;16.77;;
23988;SDS011;12202;52.136;5.592;2023-03-01T08:58:32;31.20;;;16.48;;
23988;SDS011;12202;52.136;5.592;2023-03-01T09:00:58;36.30;;;17.52;;
23988;SDS011;12202;52.136;5.592;2023-03-01T09:03:25;29.73;;;15.82;;
23988;SDS011;12202;52.136;5.592;2023-03-01T09:05:51;29.17;;;16.13;;
23988;SDS011;12202;52.136;5.592;2023-03-01T09:08:17;34.00;;;16.88;;
23988;SDS011;12202;52.136;5.592;2023-03-01T09:10:43;32.30;;;15.52;;
23988;SDS011;12202;52.136;5.592;2023-03-01T09:13:10;28.75;;;15.35;;
23988;SDS011;12202;52.136;5.592;2023-03-01T09:15:38;34.17;;;16.10;;
23988;SDS011;12202;52.136;5.592;2023-03-01T09:18:05;28.98;;;14.57;;
23988;SDS011;12202;52.136;5.592;2023-03-01T09:20:31;28.42;;;14.85;;
23988;SDS011;12202;52.136;5.592;2023-03-01T09:22:57;21.02;;;13.68;;
23988;SDS011;12202;52.136;5.592;2023-03-01T09:25:23;25.02;;;13.60;;
23988;SDS011;12202;52.136;5.592;2023-03-01T09:27:53;19.98;;;12.32;;
23988;SDS011;12202;52.136;5.592;2023-03-01T09:30:20;24.95;;;13.13;;
23988;SDS011;12202;52.136;5.592;2023-03-01T09:32:46;28.00;;;12.43;;
23988;SDS011;12202;52.136;5.592;2023-03-01T09:35:13;23.45;;;13.10;;
23988;SDS011;12202;52.136;5.592;2023-03-01T09:37:39;23.58;;;11.60;;
23988;SDS011;12202;52.136;5.592;2023-03-01T09:40:12;23.05;;;12.23;;
23988;SDS011;12202;52.136;5.592;2023-03-01T09:42:45;25.30;;;12.85;;
23988;SDS011;12202;52.136;5.592;2023-03-01T09:45:15;22.33;;;11.30;;
23988;SDS011;12202;52.136;5.592;2023-03-01T09:47:45;19.67;;;10.32;;
23988;SDS011;12202;52.136;5.592;2023-03-01T09:50:15;16.65;;;10.63;;
23988;SDS011;12202;52.136;5.592;2023-03-01T09:52:43;21.08;;;10.93;;
23988;SDS011;12202;52.136;5.592;2023-03-01T09:55:11;20.92;;;11.15;;
23988;SDS011;12202;52.136;5.592;2023-03-01T09:57:43;20.00;;;10.23;;
23988;SDS011;12202;52.136;5.592;2023-03-01T10:00:25;17.52;;;9.40;;
23988;SDS011;12202;52.136;5.592;2023-03-01T10:03:06;17.38;;;9.38;;
23988;SDS011;12202;52.136;5.592;2023-03-01T10:05:41;12.80;;;7.57;;
23988;SDS011;12202;52.136;5.592;2023-03-01T10:08:15;16.23;;;7.65;;
23988;SDS011;12202;52.136;5.592;2023-03-01T10:10:46;20.20;;;8.73;;
23988;SDS011;12202;52.136;5.592;2023-03-01T10:15:50;18.45;;;8.20;;
23988;SDS011;12202;52.136;5.592;2023-03-01T10:18:20;14.15;;;8.40;;
23988;SDS011;12202;52.136;5.592;2023-03-01T10:23:19;13.40;;;6.55;;
23988;SDS011;12202;52.136;5.592;2023-03-01T10:25:56;15.48;;;7.32;;
23988;SDS011;12202;52.136;5.592;2023-03-01T10:30:48;14.23;;;7.22;;
23988;SDS011;12202;52.136;5.592;2023-03-01T10:33:20;13.65;;;6.93;;
23988;SDS011;12202;52.136;5.592;2023-03-01T10:35:48;13.52;;;7.32;;
23988;SDS011;12202;52.136;5.592;2023-03-01T10:38:14;13.60;;;7.47;;
23988;SDS011;12202;52.136;5.592;2023-03-01T10:40:57;15.25;;;6.38;;
23988;SDS011;12202;52.136;5.592;2023-03-01T10:43:26;15.35;;;6.65;;
23988;SDS011;12202;52.136;5.592;2023-03-01T10:45:52;13.68;;;6.65;;
23988;SDS011;12202;52.136;5.592;2023-03-01T10:48:25;10.85;;;6.07;;
23988;SDS011;12202;52.136;5.592;2023-03-01T10:53:26;10.13;;;5.90;;
23988;SDS011;12202;52.136;5.592;2023-03-01T10:55:57;11.40;;;6.57;;
23988;SDS011;12202;52.136;5.592;2023-03-01T10:58:24;10.40;;;5.90;;
23988;SDS011;12202;52.136;5.592;2023-03-01T11:00:55;12.60;;;6.80;;
23988;SDS011;12202;52.136;5.592;2023-03-01T11:03:26;10.38;;;6.28;;
23988;SDS011;12202;52.136;5.592;2023-03-01T11:08:43;11.68;;;6.70;;
23988;SDS011;12202;52.136;5.592;2023-03-01T11:11:19;12.65;;;6.90;;
23988;SDS011;12202;52.136;5.592;2023-03-01T11:16:22;18.05;;;8.05;;
23988;SDS011;12202;52.136;5.592;2023-03-01T11:18:56;14.48;;;8.80;;
23988;SDS011;12202;52.136;5.592;2023-03-01T11:21:22;15.48;;;7.90;;
23988;SDS011;12202;52.136;5.592;2023-03-01T11:23:49;20.30;;;9.13;;
23988;SDS011;12202;52.136;5.592;2023-03-01T11:26:16;15.75;;;7.80;;
23988;SDS011;12202;52.136;5.592;2023-03-01T11:28:43;15.52;;;8.23;;
23988;SDS011;12202;52.136;5.592;2023-03-01T11:31:13;15.73;;;8.18;;
23988;SDS011;12202;52.136;5.592;2023-03-01T11:33:45;20.02;;;8.27;;
23988;SDS011;12202;52.136;5.592;2023-03-01T11:36:16;22.08;;;10.13;;
23988;SDS011;12202;52.136;5.592;2023-03-01T11:38:42;16.15;;;8.80;;
23988;SDS011;12202;52.136;5.592;2023-03-01T11:41:12;16.55;;;9.05;;
23988;SDS011;12202;52.136;5.592;2023-03-01T11:51:33;14.75;;;8.00;;
23988;SDS011;12202;52.136;5.592;2023-03-01T11:56:47;16.08;;;6.82;;
23988;SDS011;12202;52.136;5.592;2023-03-01T12:09:45;12.30;;;7.30;;
23988;SDS011;12202;52.136;5.592;2023-03-01T12:22:35;14.68;;;7.32;;
23988;SDS011;12202;52.136;5.592;2023-03-01T12:33:17;14.35;;;7.97;;
23988;SDS011;12202;52.136;5.592;2023-03-01T12:36:00;11.90;;;6.90;;
23988;SDS011;12202;52.136;5.592;2023-03-01T12:48:29;15.45;;;7.72;;
23988;SDS011;12202;52.136;5.592;2023-03-01T12:51:05;19.88;;;9.20;;
23988;SDS011;12202;52.136;5.592;2023-03-01T12:53:37;18.80;;;8.85;;
23988;SDS011;12202;52.136;5.592;2023-03-01T12:56:27;15.63;;;8.00;;
23988;SDS011;12202;52.136;5.592;2023-03-01T13:01:46;15.43;;;6.53;;
23988;SDS011;12202;52.136;5.592;2023-03-01T13:04:33;11.60;;;6.10;;
23988;SDS011;12202;52.136;5.592;2023-03-01T13:17:49;9.45;;;6.18;;
23988;SDS011;12202;52.136;5.592;2023-03-01T13:20:17;14.35;;;7.53;;
23988;SDS011;12202;52.136;5.592;2023-03-01T13:22:43;15.60;;;7.93;;
23988;SDS011;12202;52.136;5.592;2023-03-01T13:25:12;18.25;;;7.80;;
23988;SDS011;12202;52.136;5.592;2023-03-01T13:27:38;12.55;;;6.80;;
23988;SDS011;12202;52.136;5.592;2023-03-01T13:30:12;10.32;;;7.05;;
23988;SDS011;12202;52.136;5.592;2023-03-01T13:32:50;30.17;;;8.90;;
23988;SDS011;12202;52.136;5.592;2023-03-01T13:37:45;15.00;;;9.18;;
23988;SDS011;12202;52.136;5.592;2023-03-01T13:42:44;13.18;;;7.82;;
23988;SDS011;12202;52.136;5.592;2023-03-01T13:47:43;13.15;;;6.60;;
23988;SDS011;12202;52.136;5.592;2023-03-01T13:50:24;13.60;;;6.05;;
23988;SDS011;12202;52.136;5.592;2023-03-01T13:55:58;12.98;;;6.70;;
23988;SDS011;12202;52.136;5.592;2023-03-01T13:58:27;11.57;;;6.43;;
23988;SDS011;12202;52.136;5.592;2023-03-01T14:00:58;15.30;;;7.57;;
23988;SDS011;12202;52.136;5.592;2023-03-01T14:03:24;12.13;;;6.88;;
23988;SDS011;12202;52.136;5.592;2023-03-01T14:06:06;10.35;;;6.22;;
23988;SDS011;12202;52.136;5.592;2023-03-01T14:08:34;11.75;;;6.95;;
23988;SDS011;12202;52.136;5.592;2023-03-01T14:11:10;12.75;;;7.03;;
23988;SDS011;12202;52.136;5.592;2023-03-01T14:16:29;12.50;;;6.13;;
23988;SDS011;12202;52.136;5.592;2023-03-01T14:19:02;11.68;;;7.05;;
23988;SDS011;12202;52.136;5.592;2023-03-01T14:21:30;12.52;;;6.10;;
23988;SDS011;12202;52.136;5.592;2023-03-01T14:23:57;11.68;;;7.05;;
23988;SDS011;12202;52.136;5.592;2023-03-01T14:26:23;14.45;;;7.05;;
23988;SDS011;12202;52.136;5.592;2023-03-01T14:28:49;13.25;;;6.90;;
23988;SDS011;12202;52.136;5.592;2023-03-01T14:31:34;13.70;;;6.38;;
23988;SDS011;12202;52.136;5.592;2023-03-01T14:34:00;15.50;;;8.02;;
23988;SDS011;12202;52.136;5.592;2023-03-01T14:36:27;16.85;;;7.90;;
23988;SDS011;12202;52.136;5.592;2023-03-01T14:38:53;19.27;;;8.73;;
23988;SDS011;12202;52.136;5.592;2023-03-01T14:41:21;16.63;;;7.57;;
23988;SDS011;12202;52.136;5.592;2023-03-01T14:43:49;17.20;;;7.70;;
23988;SDS011;12202;52.136;5.592;2023-03-01T14:46:20;15.75;;;8.63;;
23988;SDS011;12202;52.136;5.592;2023-03-01T14:48:50;15.98;;;7.28;;
23988;SDS011;12202;52.136;5.592;2023-03-01T14:51:17;14.27;;;7.93;;
23988;SDS011;12202;52.136;5.592;2023-03-01T14:53:43;12.40;;;7.38;;
23988;SDS011;12202;52.136;5.592;2023-03-01T14:56:13;17.88;;;7.40;;
23988;SDS011;12202;52.136;5.592;2023-03-01T14:58:39;13.68;;;8.00;;
23988;SDS011;12202;52.136;5.592;2023-03-01T15:01:05;14.45;;;7.40;;
23988;SDS011;12202;52.136;5.592;2023-03-01T15:03:37;14.73;;;6.97;;
23988;SDS011;12202;52.136;5.592;2023-03-01T15:06:05;12.55;;;7.15;;
23988;SDS011;12202;52.136;5.592;2023-03-01T15:08:31;17.55;;;7.85;;
23988;SDS011;12202;52.136;5.592;2023-03-01T15:11:00;13.68;;;6.45;;
23988;SDS011;12202;52.136;5.592;2023-03-01T15:13:29;12.13;;;7.32;;
23988;SDS011;12202;52.136;5.592;2023-03-01T15:18:34;12.23;;;6.85;;
23988;SDS011;12202;52.136;5.592;2023-03-01T15:21:08;11.45;;;6.53;;
23988;SDS011;12202;52.136;5.592;2023-03-01T15:23:34;10.18;;;5.57;;
23988;SDS011;12202;52.136;5.592;2023-03-01T15:26:02;14.27;;;6.43;;
23988;SDS011;12202;52.136;5.592;2023-03-01T15:28:39;11.95;;;6.57;;
23988;SDS011;12202;52.136;5.592;2023-03-01T15:31:14;10.07;;;6.40;;
23988;SDS011;12202;52.136;5.592;2023-03-01T15:33:42;8.50;;;6.05;;
23988;SDS011;12202;52.136;5.592;2023-03-01T15:38:57;12.57;;;7.22;;
23988;SDS011;12202;52.136;5.592;2023-03-01T15:41:36;12.80;;;6.85;;
23988;SDS011;12202;52.136;5.592;2023-03-01T15:44:16;14.02;;;7.10;;
23988;SDS011;12202;52.136;5.592;2023-03-01T15:46:45;16.13;;;7.38;;
23988;SDS011;12202;52.136;5.592;2023-03-01T15:51:51;12.38;;;7.45;;
23988;SDS011;12202;52.136;5.592;2023-03-01T15:54:20;12.98;;;7.60;;
23988;SDS011;12202;52.136;5.592;2023-03-01T15:56:46;12.77;;;7.13;;
23988;SDS011;12202;52.136;5.592;2023-03-01T15:59:13;17.50;;;9.10;;
23988;SDS011;12202;52.136;5.592;2023-03-01T16:01:41;16.73;;;7.72;;
23988;SDS011;12202;52.136;5.592;2023-03-01T16:04:11;11.65;;;7.47;;
23988;SDS011;12202;52.136;5.592;2023-03-01T16:06:53;17.33;;;6.70;;
23988;SDS011;12202;52.136;5.592;2023-03-01T16:09:22;15.15;;;7.50;;
23988;SDS011;12202;52.136;5.592;2023-03-01T16:11:49;11.80;;;7.38;;
23988;SDS011;12202;52.136;5.592;2023-03-01T16:14:15;10.75;;;7.15;;
23988;SDS011;12202;52.136;5.592;2023-03-01T16:16:41;10.00;;;7.28;;
23988;SDS011;12202;52.136;5.592;2023-03-01T16:19:08;16.48;;;8.60;;
23988;SDS011;12202;52.136;5.592;2023-03-01T16:21:34;14.05;;;7.30;;
23988;SDS011;12202;52.136;5.592;2023-03-01T16:24:00;12.48;;;7.30;;
23988;SDS011;12202;52.136;5.592;2023-03-01T16:26:26;12.45;;;7.43;;
23988;SDS011;12202;52.136;5.592;2023-03-01T16:28:54;19.25;;;9.57;;
23988;SDS011;12202;52.136;5.592;2023-03-01T16:31:21;12.93;;;8.13;;